Terminal Aerodrome Forecast
Issued by NWS

Home | Current Version | Previous Version | Text Only | Print | Product List | Glossary On
Versions: 1 2 3 4 5 6 7 8 9 10 11 12 13 14 15 16 17 18 19 20 21 22 23 24 25 26
861
FTUS46 KSGX 240901 AAA
TAFSAN
TAF AMD
KSAN 240901Z 2409/2512 20006KT P6SM BKN025 BKN035
     FM241100 21007KT P6SM -DZ BKN019
     FM241600 22010KT P6SM BKN025
     FM241800 25011KT P6SM SCT025
     FM250100 25009KT P6SM BKN020=

USA.gov is the U.S. government's official web portal to all federal, state and local government web resources and services.